Time;durP1;ratioP1;P1;durP2;ratioP2;P2;SDS_P1;SDS_P2;PMS_P1;PMS_P2;Temp;Humidity;BMP_temperature;BMP_pressure;BME280_temperature;BME280_humidity;BME280_pressure;Samples;Min_cycle;Max_cycle;Signal;HPM_P1;HPM_P2
2022/04/01 00:00:17;;;;;;;6.90;4.15;;;0.80;99.90;;;;;;5023860;28;20049;-52
2022/04/01 00:02:44;;;;;;;6.47;3.80;;;0.80;99.90;;;;;;5020407;28;20056;-56
2022/04/01 00:05:11;;;;;;;5.90;4.35;;;0.80;99.90;;;;;;5041678;28;20068;-57
2022/04/01 00:07:40;;;;;;;8.23;4.88;;;0.80;99.90;;;;;;5042489;28;20045;-53
2022/04/01 00:10:08;;;;;;;5.57;3.88;;;0.80;99.90;;;;;;5045389;28;20060;-52
2022/04/01 00:12:40;;;;;;;8.13;4.20;;;0.80;99.90;;;;;;5057999;28;20132;-54
2022/04/01 00:15:07;;;;;;;6.00;4.07;;;0.80;99.90;;;;;;5042409;28;20094;-53
2022/04/01 00:17:33;;;;;;;5.45;3.78;;;0.70;99.90;;;;;;5046261;28;20528;-57
2022/04/01 00:19:59;;;;;;;5.85;4.00;;;0.70;99.90;;;;;;5040005;28;20048;-56
2022/04/01 00:22:25;;;;;;;6.18;3.50;;;0.70;99.90;;;;;;5046571;28;20079;-52
2022/04/01 00:24:51;;;;;;;6.05;3.13;;;0.70;99.90;;;;;;5040976;28;20106;-54
2022/04/01 00:27:17;;;;;;;5.63;3.42;;;0.70;99.90;;;;;;5039438;28;20145;-52
2022/04/01 00:29:44;;;;;;;6.53;3.40;;;0.70;99.90;;;;;;5039332;28;20080;-56
2022/04/01 00:32:10;;;;;;;7.10;3.40;;;0.70;99.90;;;;;;5045424;28;20124;-53
2022/04/01 00:34:36;;;;;;;4.47;3.00;;;0.70;99.90;;;;;;5041386;28;20044;-52
2022/04/01 00:37:03;;;;;;;6.53;3.08;;;0.70;99.90;;;;;;5056803;28;20079;-50
2022/04/01 00:39:31;;;;;;;5.13;2.88;;;0.70;99.90;;;;;;5046017;28;20484;-51
2022/04/01 00:42:00;;;;;;;5.63;2.95;;;0.70;99.90;;;;;;5024732;28;20057;-56
2022/04/01 00:44:31;;;;;;;5.63;3.50;;;0.70;99.90;;;;;;5060994;28;20611;-56
2022/04/01 00:47:14;;;;;;;5.43;3.03;;;0.70;99.90;;;;;;5057991;28;20088;-52
2022/04/01 00:49:42;;;;;;;4.07;2.75;;;0.70;99.90;;;;;;5044067;28;20499;-55
2022/04/01 00:52:10;;;;;;;6.45;3.03;;;0.70;99.90;;;;;;5063018;28;20052;-55
2022/04/01 00:54:38;;;;;;;5.65;3.35;;;0.70;99.90;;;;;;5010084;28;20150;-56
2022/04/01 00:57:10;;;;;;;4.65;2.55;;;0.70;99.90;;;;;;5047906;28;20055;-56
2022/04/01 00:59:36;;;;;;;6.05;3.30;;;0.80;99.90;;;;;;5044972;28;20049;-55
2022/04/01 01:02:03;;;;;;;5.13;2.95;;;0.80;99.90;;;;;;5025039;28;20562;-56
2022/04/01 01:04:29;;;;;;;4.90;2.38;;;0.80;99.90;;;;;;5045645;28;20053;-55
2022/04/01 01:06:57;;;;;;;5.43;2.60;;;0.80;99.90;;;;;;5042761;28;20056;-52
2022/04/01 01:09:25;;;;;;;6.32;2.75;;;0.70;99.90;;;;;;5045130;28;20171;-56
2022/04/01 01:11:54;;;;;;;6.15;3.00;;;0.80;99.90;;;;;;5041392;28;20140;-55
2022/04/01 01:14:34;;;;;;;7.40;2.90;;;0.80;99.90;;;;;;5060000;28;20491;-55
2022/04/01 01:17:07;;;;;;;5.78;2.75;;;0.80;99.90;;;;;;5042996;28;20041;-55
2022/04/01 01:19:34;;;;;;;7.85;3.35;;;0.80;99.90;;;;;;5025428;28;20423;-56
2022/04/01 01:22:00;;;;;;;3.65;2.30;;;0.80;99.90;;;;;;5043556;28;20052;-56
2022/04/01 01:24:33;;;;;;;5.95;2.70;;;0.80;99.90;;;;;;5041353;28;20146;-56
2022/04/01 01:27:00;;;;;;;4.63;2.45;;;0.80;99.90;;;;;;5042900;28;20051;-56
2022/04/01 01:29:30;;;;;;;5.60;2.50;;;0.80;99.90;;;;;;5026476;28;20378;-56
2022/04/01 01:31:59;;;;;;;3.97;2.40;;;0.80;99.90;;;;;;5044634;28;20048;-56
2022/04/01 01:34:28;;;;;;;5.90;3.20;;;0.80;99.90;;;;;;5022039;28;20119;-56
2022/04/01 01:36:56;;;;;;;5.85;2.90;;;0.80;99.90;;;;;;5041414;28;20065;-56
2022/04/01 01:39:22;;;;;;;4.70;2.83;;;0.90;99.90;;;;;;5043049;28;20537;-56
2022/04/01 01:41:50;;;;;;;5.95;2.97;;;0.90;99.90;;;;;;5036956;28;20515;-55
2022/04/01 01:44:17;;;;;;;4.35;2.63;;;0.90;99.90;;;;;;5041141;28;20049;-55
2022/04/01 01:46:44;;;;;;;4.25;2.50;;;1.00;99.90;;;;;;5057124;28;20055;-55
2022/04/01 01:49:11;;;;;;;3.85;2.40;;;1.00;99.90;;;;;;5043220;28;20162;-55
2022/04/01 01:57:09;;;;;;;4.95;2.55;;;1.10;99.90;;;;;;5033169;28;20126;-56
2022/04/01 01:59:37;;;;;;;6.00;2.67;;;1.10;99.90;;;;;;5029589;28;20243;-56
2022/04/01 02:02:05;;;;;;;3.85;2.38;;;1.20;99.90;;;;;;5025177;28;20057;-56
2022/04/01 02:04:32;;;;;;;5.72;2.65;;;1.20;99.90;;;;;;5043321;28;20144;-56
2022/04/01 02:06:59;;;;;;;9.00;3.10;;;1.20;99.90;;;;;;5041209;28;20076;-56
2022/04/01 02:09:26;;;;;;;5.53;2.83;;;1.20;99.90;;;;;;5024022;28;20405;-55
2022/04/01 02:11:53;;;;;;;3.25;2.30;;;1.20;99.90;;;;;;5033559;28;20045;-56
2022/04/01 02:14:19;;;;;;;6.47;3.03;;;1.20;99.90;;;;;;5046504;28;20107;-56
2022/04/01 02:16:46;;;;;;;4.07;2.20;;;1.30;99.90;;;;;;5056788;28;20040;-55
2022/04/01 02:19:13;;;;;;;3.85;2.40;;;1.20;99.90;;;;;;5042403;28;20045;-57
2022/04/01 02:21:39;;;;;;;7.28;3.13;;;1.20;99.90;;;;;;5044645;28;20040;-56
2022/04/01 02:24:07;;;;;;;6.10;2.95;;;1.20;99.90;;;;;;5047896;28;20053;-56
2022/04/01 02:26:34;;;;;;;7.07;3.10;;;1.20;99.90;;;;;;5041259;28;20036;-55
2022/04/01 02:29:03;;;;;;;4.75;2.78;;;1.10;99.90;;;;;;5023291;28;20851;-55
2022/04/01 02:31:37;;;;;;;4.97;2.75;;;1.10;99.90;;;;;;5042425;28;20052;-56
2022/04/01 02:34:27;;;;;;;3.72;2.50;;;1.00;99.90;;;;;;5038776;28;20102;-55
2022/04/01 02:36:57;;;;;;;6.00;2.85;;;1.00;99.90;;;;;;5044234;28;20070;-55
2022/04/01 02:39:23;;;;;;;4.47;2.88;;;0.90;99.90;;;;;;5042327;28;20503;-55
2022/04/01 02:41:49;;;;;;;5.57;3.20;;;0.90;99.90;;;;;;5040655;28;20589;-56
2022/04/01 02:44:15;;;;;;;6.63;2.70;;;0.90;99.90;;;;;;5026966;28;20080;-56
2022/04/01 02:46:43;;;;;;;4.18;3.22;;;0.90;99.90;;;;;;5029865;28;20514;-55
2022/04/01 02:49:16;;;;;;;7.35;3.50;;;0.80;99.90;;;;;;5024927;28;20047;-55
2022/04/01 02:51:56;;;;;;;4.68;2.85;;;0.80;99.90;;;;;;5040001;28;20397;-55
2022/04/01 02:54:23;;;;;;;4.22;2.78;;;0.80;99.90;;;;;;5026114;28;20516;-54
2022/04/01 02:56:51;;;;;;;4.10;2.95;;;0.80;99.90;;;;;;5005464;28;20128;-55
2022/04/01 02:59:17;;;;;;;5.97;3.47;;;0.80;99.90;;;;;;5025682;28;20091;-55
2022/04/01 03:01:43;;;;;;;7.07;3.22;;;0.80;99.90;;;;;;5058770;28;20400;-56
2022/04/01 03:04:11;;;;;;;5.43;2.97;;;0.70;99.90;;;;;;5038540;28;20052;-55
2022/04/01 03:06:46;;;;;;;6.88;3.47;;;0.70;99.90;;;;;;5035756;28;20082;-55
2022/04/01 03:09:13;;;;;;;7.82;3.35;;;0.70;99.90;;;;;;5039776;28;20080;-55
2022/04/01 03:11:45;;;;;;;6.00;2.65;;;0.80;99.90;;;;;;5028952;28;20048;-53
2022/04/01 03:14:29;;;;;;;6.20;2.95;;;0.70;99.90;;;;;;5038491;28;20479;-55
2022/04/01 03:17:13;;;;;;;6.82;2.80;;;0.80;99.90;;;;;;5038036;28;20045;-55
2022/04/01 03:19:40;;;;;;;4.97;2.80;;;0.80;99.90;;;;;;5036268;28;20045;-55
2022/04/01 03:22:07;;;;;;;7.15;3.03;;;0.90;99.90;;;;;;5041760;28;20068;-56
2022/04/01 03:24:35;;;;;;;4.00;2.40;;;0.90;99.90;;;;;;5020548;28;20148;-56
2022/04/01 03:27:02;;;;;;;5.10;2.67;;;0.90;99.90;;;;;;5019512;28;20059;-56
2022/04/01 03:29:28;;;;;;;4.18;2.03;;;0.90;99.90;;;;;;5039662;28;20636;-55
2022/04/01 03:31:55;;;;;;;4.55;2.83;;;1.00;99.90;;;;;;5022562;28;20045;-56
2022/04/01 03:34:22;;;;;;;4.40;2.53;;;1.00;99.90;;;;;;5038828;28;20422;-55
2022/04/01 03:36:48;;;;;;;2.70;1.98;;;1.00;99.90;;;;;;5045516;28;20670;-56
2022/04/01 03:39:16;;;;;;;3.78;2.50;;;1.00;99.90;;;;;;5043059;28;20675;-56
2022/04/01 03:41:49;;;;;;;5.13;2.25;;;1.00;99.90;;;;;;5055590;28;20091;-56
2022/04/01 03:44:17;;;;;;;4.95;2.53;;;1.10;99.90;;;;;;5053714;28;20045;-56
2022/04/01 03:46:59;;;;;;;4.35;2.50;;;1.10;99.90;;;;;;5044318;28;20125;-56
2022/04/01 03:49:27;;;;;;;10.43;2.20;;;1.10;99.90;;;;;;5061176;28;20166;-56
2022/04/01 03:51:55;;;;;;;4.93;2.50;;;1.10;99.90;;;;;;5056399;28;20139;-56
2022/04/01 03:54:24;;;;;;;5.82;2.53;;;1.20;99.90;;;;;;5030741;28;20539;-56
2022/04/01 03:57:03;;;;;;;5.40;3.05;;;1.20;99.90;;;;;;5041897;28;20049;-56
2022/04/01 03:59:54;;;;;;;4.05;2.10;;;1.20;99.90;;;;;;5041263;28;20037;-56
2022/04/01 04:02:43;;;;;;;3.78;2.25;;;1.30;99.90;;;;;;5036180;28;20072;-56
2022/04/01 04:05:11;;;;;;;4.75;2.80;;;1.30;99.90;;;;;;5039981;28;20053;-56
2022/04/01 04:07:40;;;;;;;3.65;2.25;;;1.30;99.90;;;;;;5043378;28;20146;-56
2022/04/01 04:10:10;;;;;;;4.65;2.40;;;1.30;99.90;;;;;;5025796;28;20401;-56
2022/04/01 04:12:57;;;;;;;4.22;2.40;;;1.30;99.90;;;;;;5035537;28;20516;-56
2022/04/01 04:15:58;;;;;;;4.32;2.20;;;1.30;99.90;;;;;;5046801;28;20049;-56
2022/04/01 04:18:34;;;;;;;3.67;2.38;;;1.40;99.90;;;;;;5026625;28;20052;-56
2022/04/01 04:21:04;;;;;;;3.63;2.53;;;1.40;99.90;;;;;;5039370;28;20053;-53
2022/04/01 04:23:50;;;;;;;3.97;2.10;;;1.40;99.90;;;;;;5052932;28;20053;-56
2022/04/01 04:26:38;;;;;;;5.18;2.35;;;1.40;99.90;;;;;;5046206;28;20055;-56
2022/04/01 04:29:11;;;;;;;4.18;2.10;;;1.50;99.90;;;;;;5043148;28;20037;-56
2022/04/01 04:32:04;;;;;;;7.55;1.95;;;1.40;99.90;;;;;;5054442;28;20068;-56
2022/04/01 04:34:37;;;;;;;5.97;2.25;;;1.50;99.90;;;;;;5043649;28;20056;-56
2022/04/01 04:37:09;;;;;;;5.38;2.38;;;1.50;99.90;;;;;;5055355;28;20044;-56
2022/04/01 04:39:39;;;;;;;4.63;2.30;;;1.50;99.90;;;;;;5041097;28;20083;-56
2022/04/01 04:42:07;;;;;;;4.85;2.58;;;1.50;99.90;;;;;;5027049;28;20056;-52
2022/04/01 04:44:35;;;;;;;6.35;2.30;;;1.50;99.90;;;;;;5033169;28;20120;-52
2022/04/01 04:47:05;;;;;;;4.20;1.92;;;1.50;99.90;;;;;;5040756;28;20526;-53
2022/04/01 04:49:32;;;;;;;4.80;2.33;;;1.50;99.90;;;;;;5052093;28;20473;-56
2022/04/01 04:52:00;;;;;;;5.50;2.20;;;1.50;99.90;;;;;;5043351;28;20045;-56
2022/04/01 04:54:50;;;;;;;4.57;2.20;;;1.60;99.90;;;;;;5035473;28;20045;-52
2022/04/01 04:57:28;;;;;;;4.20;2.25;;;1.50;99.90;;;;;;5050288;28;21433;-53
2022/04/01 05:00:00;;;;;;;2.85;1.92;;;1.50;99.90;;;;;;5050617;28;20103;-56
2022/04/01 05:03:10;;;;;;;3.85;2.15;;;1.50;99.90;;;;;;5049104;28;20081;-54
2022/04/01 05:05:43;;;;;;;5.20;2.25;;;1.50;99.90;;;;;;5026662;28;20226;-51
2022/04/01 05:08:30;;;;;;;5.07;2.00;;;1.50;99.90;;;;;;5043597;28;20781;-51
2022/04/01 05:11:16;;;;;;;3.45;1.90;;;1.50;99.90;;;;;;5035334;28;20100;-54
2022/04/01 05:14:00;;;;;;;4.35;1.70;;;1.50;99.90;;;;;;5045988;28;20048;-52
2022/04/01 05:16:47;;;;;;;;;;;1.50;99.90;;;;;;5055086;28;20066;-53
2022/04/01 05:19:14;;;;;;;3.13;1.75;;;1.50;99.90;;;;;;5039180;28;20019;-50
2022/04/01 05:22:15;;;;;;;4.93;2.22;;;1.50;99.90;;;;;;5034010;28;20654;-54
2022/04/01 05:25:01;;;;;;;6.30;2.17;;;1.50;99.90;;;;;;5020256;28;20167;-56
2022/04/01 05:27:38;;;;;;;4.20;1.77;;;1.50;99.90;;;;;;5045074;28;20110;-53
2022/04/01 05:30:18;;;;;;;6.03;4.05;;;1.50;99.90;;;;;;5056628;28;20044;-56
2022/04/01 05:33:09;;;;;;;5.35;2.63;;;1.60;99.90;;;;;;5041922;28;20054;-56
2022/04/01 05:35:43;;;;;;;7.67;3.97;;;1.60;99.90;;;;;;5048836;28;20132;-57
2022/04/01 05:38:12;;;;;;;7.70;2.42;;;1.60;99.90;;;;;;5026926;28;20049;-56
2022/04/01 05:40:39;;;;;;;5.13;2.22;;;1.60;99.90;;;;;;5042141;28;20084;-57
2022/04/01 05:43:10;;;;;;;8.07;4.35;;;1.60;99.90;;;;;;5042692;28;20053;-56
2022/04/01 05:46:00;;;;;;;5.40;2.58;;;1.70;99.90;;;;;;5036707;28;20452;-57
2022/04/01 05:48:27;;;;;;;6.90;4.07;;;1.70;99.90;;;;;;5050208;28;20163;-58
2022/04/01 05:50:54;;;;;;;8.98;5.00;;;1.70;99.90;;;;;;5058840;28;20060;-57
2022/04/01 05:53:24;;;;;;;8.52;5.05;;;1.70;99.90;;;;;;5028185;28;20040;-57
2022/04/01 05:55:55;;;;;;;6.80;3.60;;;1.80;99.90;;;;;;5055808;28;20520;-57
2022/04/01 05:58:21;;;;;;;8.40;3.95;;;1.80;99.90;;;;;;5041210;28;20492;-57
2022/04/01 06:01:02;;;;;;;13.43;7.30;;;1.80;99.90;;;;;;5050539;28;20140;-57
2022/04/01 06:03:41;;;;;;;10.90;5.47;;;1.80;99.90;;;;;;5036385;28;20064;-57
2022/04/01 06:06:16;;;;;;;10.65;6.50;;;1.90;99.90;;;;;;5037056;28;20099;-57
2022/04/01 06:08:48;;;;;;;15.82;11.15;;;1.90;99.90;;;;;;5024571;28;20137;-57
2022/04/01 06:11:37;;;;;;;6.03;2.60;;;1.90;99.90;;;;;;5036429;28;20102;-57
2022/04/01 06:14:37;;;;;;;8.60;4.30;;;2.00;99.90;;;;;;5043824;28;20048;-57
2022/04/01 06:17:50;;;;;;;6.80;3.83;;;2.00;99.90;;;;;;5042427;28;20470;-57
2022/04/01 06:20:19;;;;;;;8.90;3.95;;;2.10;99.90;;;;;;5040592;28;20058;-57
2022/04/01 06:22:55;;;;;;;6.15;2.72;;;2.10;99.90;;;;;;5041524;28;20515;-57
2022/04/01 06:25:31;;;;;;;9.80;5.00;;;2.10;99.90;;;;;;5050180;28;20086;-57
2022/04/01 06:28:15;;;;;;;5.88;3.72;;;2.20;99.90;;;;;;5023600;28;20044;-57
2022/04/01 06:30:44;;;;;;;11.32;7.40;;;2.30;99.90;;;;;;5042751;28;20220;-57
2022/04/01 06:33:31;;;;;;;7.38;4.53;;;2.20;99.90;;;;;;5023460;28;20401;-57
2022/04/01 06:36:34;;;;;;;7.18;3.22;;;2.30;99.90;;;;;;5039728;28;20564;-57
2022/04/01 06:39:06;;;;;;;7.90;2.70;;;2.40;99.90;;;;;;5037592;28;20163;-55
2022/04/01 06:41:47;;;;;;;6.80;3.85;;;2.40;99.90;;;;;;5039805;28;20131;-58
2022/04/01 06:44:32;;;;;;;8.50;4.18;;;2.40;99.90;;;;;;5038312;28;20064;-57
2022/04/01 06:47:17;;;;;;;9.55;5.93;;;2.50;99.90;;;;;;5040640;28;20049;-58
2022/04/01 06:49:43;;;;;;;6.40;3.78;;;2.50;99.90;;;;;;5054461;28;20122;-57
2022/04/01 06:52:10;;;;;;;10.48;6.38;;;2.50;99.90;;;;;;5040997;28;20041;-57
2022/04/01 06:54:56;;;;;;;8.68;5.07;;;2.60;99.90;;;;;;5027676;28;20106;-57
2022/04/01 06:57:42;;;;;;;4.85;2.67;;;2.70;99.90;;;;;;5047273;28;20049;-58
2022/04/01 07:00:16;;;;;;;6.35;3.10;;;2.70;99.90;;;;;;5045088;28;20045;-58
2022/04/01 07:02:42;;;;;;;8.88;3.65;;;2.70;99.90;;;;;;5011926;28;20048;-59
2022/04/01 07:05:10;;;;;;;5.82;2.53;;;2.80;99.90;;;;;;5047213;28;20086;-60
2022/04/01 07:07:38;;;;;;;6.47;2.75;;;2.80;99.90;;;;;;5043083;28;20628;-59
2022/04/01 07:10:05;;;;;;;5.75;3.00;;;2.80;99.90;;;;;;5044077;28;20530;-59
2022/04/01 07:12:32;;;;;;;3.78;2.42;;;2.90;99.90;;;;;;5041381;28;20497;-59
2022/04/01 07:14:59;;;;;;;6.75;3.88;;;3.00;99.90;;;;;;5045766;28;20562;-59
2022/04/01 07:17:25;;;;;;;6.82;3.65;;;3.00;99.90;;;;;;5026524;28;20080;-59
2022/04/01 07:19:52;;;;;;;5.15;1.88;;;3.00;99.90;;;;;;5043273;28;20048;-60
2022/04/01 07:22:18;;;;;;;9.52;3.45;;;3.10;99.90;;;;;;5048459;28;20040;-59
2022/04/01 07:24:44;;;;;;;4.55;2.45;;;3.10;99.90;;;;;;5043861;28;20047;-59
2022/04/01 07:27:11;;;;;;;6.03;3.75;;;3.10;99.90;;;;;;5041742;28;20382;-59
2022/04/01 07:29:38;;;;;;;12.18;4.78;;;3.20;99.90;;;;;;5048189;28;20143;-61
2022/04/01 07:34:51;;;;;;;8.52;3.38;;;3.10;99.90;;;;;;5025581;28;20057;-60
2022/04/01 07:37:23;;;;;;;5.85;2.55;;;3.10;99.90;;;;;;5040013;28;20069;-60
2022/04/01 07:39:54;;;;;;;12.77;7.40;;;3.10;99.90;;;;;;5029307;28;20065;-60
2022/04/01 07:42:21;;;;;;;5.38;2.80;;;3.20;99.90;;;;;;5024303;28;20060;-59
2022/04/01 07:44:48;;;;;;;4.00;1.90;;;3.30;99.90;;;;;;5030683;28;20049;-60
2022/04/01 07:47:15;;;;;;;5.07;2.55;;;3.20;99.90;;;;;;5035839;28;20045;-60
2022/04/01 07:49:42;;;;;;;10.18;7.15;;;3.20;99.90;;;;;;5049658;28;20641;-61
2022/04/01 07:52:10;;;;;;;14.75;10.10;;;3.40;99.90;;;;;;5042643;28;20052;-60
2022/04/01 07:54:38;;;;;;;10.38;5.88;;;3.30;99.90;;;;;;5039902;28;20045;-50
2022/04/01 07:57:06;;;;;;;15.05;8.55;;;3.40;99.90;;;;;;5055819;28;20049;-53
2022/04/01 07:59:34;;;;;;;8.82;5.32;;;3.40;99.90;;;;;;5055055;28;20491;-54
2022/04/01 08:02:00;;;;;;;6.10;3.97;;;3.40;99.90;;;;;;5020118;28;20556;-52
2022/04/01 08:04:27;;;;;;;11.63;8.18;;;3.40;99.90;;;;;;5045413;28;20115;-50
2022/04/01 08:06:54;;;;;;;9.27;4.80;;;3.40;99.90;;;;;;5035607;28;20170;-48
2022/04/01 08:09:20;;;;;;;8.32;6.07;;;3.40;99.90;;;;;;5035320;28;20259;-51
2022/04/01 08:11:47;;;;;;;8.93;5.68;;;3.30;99.90;;;;;;5019684;28;20134;-51
2022/04/01 08:14:13;;;;;;;5.97;3.50;;;3.20;99.90;;;;;;5040749;28;20045;-53
2022/04/01 08:16:39;;;;;;;12.77;6.35;;;3.20;99.90;;;;;;5035621;28;20080;-53
2022/04/01 08:19:05;;;;;;;5.80;4.28;;;3.30;99.90;;;;;;5041105;28;20041;-53
2022/04/01 08:21:32;;;;;;;8.90;4.57;;;3.40;99.90;;;;;;5051869;28;20053;-53
2022/04/01 08:23:59;;;;;;;7.55;4.30;;;3.30;99.90;;;;;;5057768;28;20048;-53
2022/04/01 08:26:26;;;;;;;6.70;4.57;;;3.40;99.90;;;;;;5058018;28;20086;-52
2022/04/01 08:28:53;;;;;;;6.85;3.90;;;3.40;99.90;;;;;;5042953;28;20053;-49
2022/04/01 08:31:20;;;;;;;11.63;8.45;;;3.30;99.90;;;;;;5042713;28;20045;-50
2022/04/01 08:33:47;;;;;;;12.75;9.32;;;3.40;99.90;;;;;;5039955;28;20649;-50
2022/04/01 08:36:17;;;;;;;10.60;6.63;;;3.40;99.90;;;;;;5032612;28;20041;-53
2022/04/01 08:38:48;;;;;;;9.98;6.45;;;3.50;99.90;;;;;;5037720;28;20549;-52
2022/04/01 08:41:19;;;;;;;9.75;6.00;;;3.50;99.90;;;;;;5042667;28;20096;-53
2022/04/01 08:43:47;;;;;;;11.63;7.45;;;3.60;99.90;;;;;;5028523;28;20500;-52
2022/04/01 08:46:14;;;;;;;9.23;6.53;;;3.60;99.90;;;;;;5042568;28;20052;-53
2022/04/01 08:48:41;;;;;;;12.45;7.57;;;3.60;99.90;;;;;;5040743;28;20048;-53
2022/04/01 08:51:08;;;;;;;9.05;6.68;;;3.70;99.90;;;;;;5033243;28;20072;-53
2022/04/01 08:53:39;;;;;;;11.90;7.05;;;3.60;99.90;;;;;;5009902;28;20092;-54
2022/04/01 08:56:06;;;;;;;10.40;6.40;;;3.50;99.90;;;;;;5053682;28;20495;-55
2022/04/01 08:58:35;;;;;;;9.35;6.03;;;3.60;99.90;;;;;;5022792;28;20137;-54
2022/04/01 09:01:05;;;;;;;9.60;7.13;;;3.50;99.90;;;;;;5006552;28;20048;-54
2022/04/01 09:03:34;;;;;;;9.07;6.22;;;3.40;99.90;;;;;;5037524;28;20048;-56
2022/04/01 09:06:03;;;;;;;12.18;7.70;;;3.40;99.90;;;;;;5021884;28;20041;-55
2022/04/01 09:08:35;;;;;;;7.28;5.05;;;3.40;99.90;;;;;;5046303;28;20487;-51
2022/04/01 09:11:04;;;;;;;;;;;3.50;99.90;;;;;;5023983;28;20041;-53
2022/04/01 09:13:33;;;;;;;11.80;8.05;;;3.60;99.90;;;;;;5040874;28;19936;-53
2022/04/01 09:16:01;;;;;;;12.75;7.63;;;3.60;99.90;;;;;;5044365;28;20049;-54
2022/04/01 09:18:40;;;;;;;12.25;7.75;;;3.60;99.90;;;;;;5055941;28;20087;-52
2022/04/01 09:21:08;;;;;;;14.13;10.07;;;3.50;99.90;;;;;;5037383;28;20123;-51
2022/04/01 09:23:35;;;;;;;12.65;9.18;;;3.60;99.90;;;;;;5040156;28;20045;-54
2022/04/01 09:26:02;;;;;;;7.80;5.85;;;3.80;99.90;;;;;;5038227;28;20207;-53
2022/04/01 09:28:45;;;;;;;9.65;6.85;;;3.90;99.90;;;;;;5042341;28;20446;-53
2022/04/01 09:31:15;;;;;;;12.95;7.65;;;4.10;99.90;;;;;;5040489;28;20045;-53
2022/04/01 09:33:47;;;;;;;11.32;9.02;;;4.00;99.90;;;;;;5043097;28;20056;-53
2022/04/01 09:36:29;;;;;;;9.65;7.20;;;4.00;99.90;;;;;;5020525;28;20053;-53
2022/04/01 09:39:04;;;;;;;11.25;9.15;;;4.10;99.90;;;;;;5036922;28;20574;-50
2022/04/01 09:41:36;;;;;;;10.25;7.40;;;3.90;99.90;;;;;;5021740;28;20053;-53
2022/04/01 09:44:09;;;;;;;11.55;7.70;;;4.00;99.90;;;;;;5037820;28;20040;-53
2022/04/01 09:46:40;;;;;;;8.18;6.90;;;4.20;99.90;;;;;;5035720;28;20596;-52
2022/04/01 09:49:07;;;;;;;9.45;6.57;;;4.40;99.90;;;;;;5034628;28;20076;-52
2022/04/01 09:51:34;;;;;;;11.55;9.57;;;4.60;99.90;;;;;;5036370;28;20041;-62
2022/04/01 09:54:04;;;;;;;9.60;7.50;;;4.60;99.90;;;;;;5017166;28;20080;-64
2022/04/01 09:56:39;;;;;;;10.43;7.80;;;4.60;99.90;;;;;;5037802;28;20041;-62
2022/04/01 09:59:09;;;;;;;10.10;7.45;;;4.40;99.90;;;;;;5050383;28;20554;-62
2022/04/01 10:01:37;;;;;;;10.63;7.28;;;4.60;99.90;;;;;;5041138;28;20064;-62
2022/04/01 10:04:04;;;;;;;8.95;6.75;;;4.60;99.90;;;;;;5006263;28;20056;-61
2022/04/01 10:06:32;;;;;;;8.45;6.75;;;4.80;99.90;;;;;;5041133;28;20202;-61
2022/04/01 10:09:04;;;;;;;9.25;6.47;;;4.90;99.90;;;;;;5055150;28;20060;-62
2022/04/01 10:11:31;;;;;;;10.05;6.80;;;5.10;99.90;;;;;;5038693;28;20149;-61
2022/04/01 10:14:05;;;;;;;9.93;7.10;;;5.30;99.90;;;;;;5023196;28;20087;-61
2022/04/01 10:16:34;;;;;;;9.52;6.75;;;5.20;99.90;;;;;;5038225;28;20056;-62
2022/04/01 10:19:08;;;;;;;8.00;5.72;;;4.90;99.90;;;;;;5055383;28;20053;-61
2022/04/01 10:21:36;;;;;;;9.57;7.93;;;4.60;99.90;;;;;;5024314;28;20460;-61
2022/04/01 10:24:15;;;;;;;9.02;7.03;;;4.70;99.90;;;;;;5039110;28;21073;-61
2022/04/01 10:27:15;;;;;;;;;;;4.90;99.90;;;;;;5038403;28;20049;-58
2022/04/01 10:29:43;;;;;;;13.07;9.63;;;4.80;99.90;;;;;;5037379;28;19927;-61
2022/04/01 10:32:40;;;;;;;21.17;16.63;;;5.00;99.90;;;;;;5038089;28;20171;-62
2022/04/01 10:35:08;;;;;;;14.05;10.45;;;5.20;99.90;;;;;;5037757;28;20098;-48
2022/04/01 10:37:35;;;;;;;10.68;8.63;;;5.50;99.90;;;;;;5043364;28;20504;-48
2022/04/01 10:40:18;;;;;;;12.93;10.45;;;5.50;99.90;;;;;;5039751;28;20084;-49
2022/04/01 10:42:46;;;;;;;8.90;7.18;;;5.40;99.90;;;;;;5031937;28;20083;-49
2022/04/01 10:45:15;;;;;;;16.70;11.00;;;5.10;99.90;;;;;;5039345;28;20442;-48
2022/04/01 10:53:39;;;;;;;9.73;6.43;;;5.20;99.90;;;;;;5045012;28;20056;-50
2022/04/01 10:56:26;;;;;;;8.27;5.53;;;5.20;99.90;;;;;;5064533;28;20044;-49
2022/04/01 10:59:18;;;;;;;7.47;4.80;;;4.90;99.90;;;;;;5057918;28;20056;-47
2022/04/01 11:01:53;;;;;;;;;;;4.70;99.90;;;;;;5033251;28;20370;-49
2022/04/01 11:04:21;;;;;;;6.80;4.57;;;4.50;99.90;;;;;;5022859;28;20726;-47
2022/04/01 11:07:14;;;;;;;11.82;7.70;;;4.70;99.90;;;;;;5037625;28;20052;-48
2022/04/01 11:09:48;;;;;;;6.20;5.28;;;4.90;99.90;;;;;;5023059;28;20460;-49
2022/04/01 11:12:14;;;;;;;9.02;4.85;;;5.00;99.90;;;;;;5057406;28;20044;-50
2022/04/01 11:14:54;;;;;;;7.22;4.32;;;4.90;99.90;;;;;;5046155;28;20044;-49
2022/04/01 11:17:48;;;;;;;7.43;5.80;;;4.60;99.90;;;;;;5055272;28;20168;-50
2022/04/01 11:20:27;;;;;;;5.35;3.30;;;4.60;99.90;;;;;;5032093;28;20053;-48
2022/04/01 11:22:54;;;;;;;4.32;3.10;;;4.50;99.90;;;;;;5038776;28;20041;-49
2022/04/01 11:25:27;;;;;;;6.50;4.10;;;4.60;99.90;;;;;;5039166;28;20114;-49
2022/04/01 11:28:01;;;;;;;4.55;3.08;;;4.70;99.90;;;;;;5041330;28;20045;-48
2022/04/01 11:30:29;;;;;;;5.65;3.13;;;4.90;99.90;;;;;;5040071;28;20053;-51
2022/04/01 11:33:00;;;;;;;5.43;3.38;;;5.00;99.90;;;;;;5040376;28;20056;-48
2022/04/01 11:35:30;;;;;;;6.45;3.95;;;5.20;99.90;;;;;;5039303;28;20688;-50
2022/04/01 11:37:56;;;;;;;4.85;3.10;;;5.20;99.90;;;;;;5036953;28;20296;-48
2022/04/01 11:40:28;;;;;;;6.55;4.15;;;5.20;99.90;;;;;;5038885;28;20457;-50
2022/04/01 11:43:02;;;;;;;7.65;3.47;;;5.00;99.90;;;;;;5034772;28;20049;-48
2022/04/01 11:45:47;;;;;;;4.10;2.80;;;4.70;99.90;;;;;;5038796;28;20103;-51
2022/04/01 11:48:18;;;;;;;7.07;3.95;;;4.80;99.90;;;;;;5037758;28;20102;-52
2022/04/01 11:50:50;;;;;;;8.07;3.63;;;4.90;99.90;;;;;;5038737;28;20504;-49
2022/04/01 11:53:23;;;;;;;;;;;5.00;99.90;;;;;;5040373;28;20044;-52
2022/04/01 11:55:50;;;;;;;6.28;3.47;;;5.20;99.90;;;;;;5040913;28;19921;-50
2022/04/01 11:58:16;;;;;;;5.47;3.30;;;5.30;99.90;;;;;;5040968;28;20594;-49
2022/04/01 12:00:43;;;;;;;8.80;6.43;;;5.50;99.90;;;;;;5041879;28;20520;-49
2022/04/01 12:03:10;;;;;;;8.27;5.03;;;5.50;99.90;;;;;;5044389;28;20049;-48
2022/04/01 12:05:36;;;;;;;14.98;10.82;;;5.50;99.90;;;;;;5056827;28;20052;-52
2022/04/01 12:10:52;;;;;;;7.07;4.13;;;5.60;99.90;;;;;;5041018;28;20045;-48
2022/04/01 12:13:23;;;;;;;5.45;3.08;;;5.80;99.90;;;;;;5030814;28;20120;-49
2022/04/01 12:15:52;;;;;;;10.33;7.17;;;5.90;99.90;;;;;;5043174;28;20050;-48
2022/04/01 12:18:20;;;;;;;12.25;6.50;;;5.80;99.90;;;;;;5065322;28;20366;-48
2022/04/01 12:20:49;;;;;;;4.80;3.50;;;5.70;99.90;;;;;;5079547;28;20579;-52
2022/04/01 12:23:17;;;;;;;6.03;3.78;;;5.70;99.90;;;;;;5048970;28;20124;-50
2022/04/01 12:25:44;;;;;;;9.82;6.30;;;5.70;99.90;;;;;;5040866;28;20052;-53
2022/04/01 12:28:12;;;;;;;9.30;6.32;;;5.70;99.90;;;;;;5041441;28;20045;-51
2022/04/01 12:30:48;;;;;;;6.43;4.32;;;5.70;99.90;;;;;;5042629;28;20044;-51
2022/04/01 12:33:25;;;;;;;6.63;3.63;;;5.70;99.90;;;;;;5040945;28;20071;-51
2022/04/01 12:36:03;;;;;;;6.97;4.65;;;5.80;99.90;;;;;;5038405;28;20045;-51
2022/04/01 12:38:35;;;;;;;5.80;4.07;;;5.90;99.90;;;;;;5037996;28;20075;-49
2022/04/01 12:41:06;;;;;;;7.90;5.23;;;5.80;99.90;;;;;;5049069;28;20053;-49
2022/04/01 12:43:41;;;;;;;5.72;3.80;;;6.00;99.90;;;;;;5023940;28;20930;-51
2022/04/01 12:46:30;;;;;;;10.10;6.05;;;6.20;99.90;;;;;;5057036;28;20068;-50
2022/04/01 12:49:14;;;;;;;6.05;3.45;;;6.20;99.90;;;;;;5042262;28;21509;-48
2022/04/01 12:51:59;;;;;;;14.27;9.50;;;6.50;99.90;;;;;;5040270;28;20072;-48
2022/04/01 12:54:38;;;;;;;12.13;7.18;;;6.60;99.90;;;;;;5041042;28;20037;-48
2022/04/01 12:57:11;;;;;;;13.40;8.10;;;6.30;99.90;;;;;;5058125;28;20083;-50
2022/04/01 12:59:41;;;;;;;7.95;4.72;;;6.20;99.90;;;;;;5040790;28;20064;-50
2022/04/01 13:02:07;;;;;;;8.38;4.22;;;6.10;99.90;;;;;;5023911;28;20049;-50
2022/04/01 13:04:45;;;;;;;7.90;5.35;;;6.20;99.90;;;;;;5043007;28;20394;-49
2022/04/01 13:07:15;;;;;;;10.00;3.45;;;6.10;99.90;;;;;;5040010;28;20394;-49
2022/04/01 13:09:59;;;;;;;22.25;13.82;;;6.10;99.90;;;;;;5039690;28;20588;-48
2022/04/01 13:12:46;;;;;;;7.88;4.57;;;6.10;99.90;;;;;;5047390;28;20061;-50
2022/04/01 13:15:19;;;;;;;10.95;7.03;;;6.10;99.90;;;;;;5042609;28;20500;-50
2022/04/01 13:17:50;;;;;;;10.52;7.03;;;5.80;99.90;;;;;;5009356;28;20045;-51
2022/04/01 13:20:27;;;;;;;8.45;5.10;;;5.80;99.90;;;;;;5054756;28;20044;-51
2022/04/01 13:22:54;;;;;;;9.48;6.95;;;5.80;99.90;;;;;;5039855;28;20126;-50
2022/04/01 13:25:22;;;;;;;11.77;7.10;;;5.80;99.90;;;;;;5054484;28;20231;-49
2022/04/01 13:27:49;;;;;;;8.23;4.85;;;6.00;99.90;;;;;;5037110;28;20041;-49
2022/04/01 13:30:17;;;;;;;8.93;4.75;;;5.90;99.90;;;;;;5042479;28;20501;-53
2022/04/01 13:32:44;;;;;;;8.07;4.18;;;6.00;99.90;;;;;;5043227;28;20071;-52
2022/04/01 13:35:10;;;;;;;8.55;6.45;;;6.10;99.90;;;;;;5052270;28;20095;-48
2022/04/01 13:37:40;;;;;;;8.18;3.90;;;6.00;99.90;;;;;;5058208;28;20051;-48